sensor_id;sensor_type;location;lat;lon;timestamp;P1;durP1;ratioP1;P2;durP2;ratioP2
71387;SDS011;59201;59.902;10.520;2023-01-05T00:02:27;1.38;;;0.50;;
71387;SDS011;59201;59.902;10.520;2023-01-05T00:04:55;1.85;;;0.50;;
71387;SDS011;59201;59.902;10.520;2023-01-05T00:07:22;1.98;;;0.50;;
71387;SDS011;59201;59.902;10.520;2023-01-05T00:09:52;1.40;;;0.40;;
71387;SDS011;59201;59.902;10.520;2023-01-05T00:12:21;1.90;;;0.50;;
71387;SDS011;59201;59.902;10.520;2023-01-05T00:15:09;1.58;;;0.50;;
71387;SDS011;59201;59.902;10.520;2023-01-05T00:17:55;2.50;;;0.60;;
71387;SDS011;59201;59.902;10.520;2023-01-05T00:20:39;2.00;;;0.63;;
71387;SDS011;59201;59.902;10.520;2023-01-05T00:23:25;0.73;;;0.33;;
71387;SDS011;59201;59.902;10.520;2023-01-05T00:25:54;3.03;;;0.45;;
71387;SDS011;59201;59.902;10.520;2023-01-05T00:28:25;1.60;;;0.52;;
71387;SDS011;59201;59.902;10.520;2023-01-05T00:30:57;1.38;;;0.50;;
71387;SDS011;59201;59.902;10.520;2023-01-05T00:33:25;1.45;;;0.63;;
71387;SDS011;59201;59.902;10.520;2023-01-05T00:35:55;2.13;;;0.57;;
71387;SDS011;59201;59.902;10.520;2023-01-05T00:38:23;1.55;;;0.40;;
71387;SDS011;59201;59.902;10.520;2023-01-05T00:40:54;1.25;;;0.40;;
71387;SDS011;59201;59.902;10.520;2023-01-05T00:43:21;1.05;;;0.40;;
71387;SDS011;59201;59.902;10.520;2023-01-05T00:45:49;1.88;;;0.60;;
71387;SDS011;59201;59.902;10.520;2023-01-05T00:48:17;1.87;;;0.50;;
71387;SDS011;59201;59.902;10.520;2023-01-05T00:50:48;0.70;;;0.30;;
71387;SDS011;59201;59.902;10.520;2023-01-05T00:53:18;1.27;;;0.43;;
71387;SDS011;59201;59.902;10.520;2023-01-05T00:55:54;1.08;;;0.40;;
71387;SDS011;59201;59.902;10.520;2023-01-05T00:58:22;1.38;;;0.50;;
71387;SDS011;59201;59.902;10.520;2023-01-05T01:00:52;1.43;;;0.40;;
71387;SDS011;59201;59.902;10.520;2023-01-05T01:03:27;0.75;;;0.40;;
71387;SDS011;59201;59.902;10.520;2023-01-05T01:05:56;1.48;;;0.50;;
71387;SDS011;59201;59.902;10.520;2023-01-05T01:08:28;1.27;;;0.40;;
71387;SDS011;59201;59.902;10.520;2023-01-05T01:11:02;1.88;;;0.55;;
71387;SDS011;59201;59.902;10.520;2023-01-05T01:13:32;0.53;;;0.30;;
71387;SDS011;59201;59.902;10.520;2023-01-05T01:16:08;2.00;;;0.60;;
71387;SDS011;59201;59.902;10.520;2023-01-05T01:18:36;2.33;;;0.55;;
71387;SDS011;59201;59.902;10.520;2023-01-05T01:21:05;1.15;;;0.30;;
71387;SDS011;59201;59.902;10.520;2023-01-05T01:23:35;1.75;;;0.70;;
71387;SDS011;59201;59.902;10.520;2023-01-05T01:26:03;0.77;;;0.40;;
71387;SDS011;59201;59.902;10.520;2023-01-05T01:28:30;1.50;;;0.40;;
71387;SDS011;59201;59.902;10.520;2023-01-05T01:30:59;2.42;;;0.63;;
71387;SDS011;59201;59.902;10.520;2023-01-05T01:33:32;1.42;;;0.50;;
71387;SDS011;59201;59.902;10.520;2023-01-05T01:36:03;1.95;;;0.60;;
71387;SDS011;59201;59.902;10.520;2023-01-05T01:38:32;1.47;;;0.50;;
71387;SDS011;59201;59.902;10.520;2023-01-05T01:41:02;0.90;;;0.32;;
71387;SDS011;59201;59.902;10.520;2023-01-05T01:43:48;1.30;;;0.45;;
71387;SDS011;59201;59.902;10.520;2023-01-05T01:46:16;2.50;;;0.50;;
71387;SDS011;59201;59.902;10.520;2023-01-05T01:48:50;1.50;;;0.60;;
71387;SDS011;59201;59.902;10.520;2023-01-05T01:51:22;1.03;;;0.40;;
71387;SDS011;59201;59.902;10.520;2023-01-05T01:53:52;1.42;;;0.43;;
71387;SDS011;59201;59.902;10.520;2023-01-05T01:56:22;2.38;;;0.70;;
71387;SDS011;59201;59.902;10.520;2023-01-05T01:58:50;1.48;;;0.50;;
71387;SDS011;59201;59.902;10.520;2023-01-05T02:01:21;1.70;;;0.52;;
71387;SDS011;59201;59.902;10.520;2023-01-05T02:03:49;0.30;;;0.30;;
71387;SDS011;59201;59.902;10.520;2023-01-05T02:06:20;1.10;;;0.40;;
71387;SDS011;59201;59.902;10.520;2023-01-05T02:08:49;0.55;;;0.38;;
71387;SDS011;59201;59.902;10.520;2023-01-05T02:24:23;0.50;;;0.30;;
71387;SDS011;59201;59.902;10.520;2023-01-05T02:32:47;2.17;;;0.70;;
71387;SDS011;59201;59.902;10.520;2023-01-05T02:38:12;2.00;;;0.52;;
71387;SDS011;59201;59.902;10.520;2023-01-05T02:40:47;0.32;;;0.30;;
71387;SDS011;59201;59.902;10.520;2023-01-05T02:43:17;2.00;;;0.53;;
71387;SDS011;59201;59.902;10.520;2023-01-05T02:45:48;1.70;;;0.57;;
71387;SDS011;59201;59.902;10.520;2023-01-05T02:48:16;2.13;;;0.60;;
71387;SDS011;59201;59.902;10.520;2023-01-05T02:50:55;2.65;;;0.60;;
71387;SDS011;59201;59.902;10.520;2023-01-05T02:53:39;2.05;;;0.65;;
71387;SDS011;59201;59.902;10.520;2023-01-05T03:01:13;2.88;;;0.80;;
71387;SDS011;59201;59.902;10.520;2023-01-05T03:03:53;2.25;;;0.68;;
71387;SDS011;59201;59.902;10.520;2023-01-05T03:08:59;2.10;;;0.60;;
71387;SDS011;59201;59.902;10.520;2023-01-05T03:12:12;3.25;;;0.80;;
71387;SDS011;59201;59.902;10.520;2023-01-05T03:14:37;1.67;;;0.65;;
71387;SDS011;59201;59.902;10.520;2023-01-05T03:17:09;2.10;;;0.57;;
71387;SDS011;59201;59.902;10.520;2023-01-05T03:19:37;1.67;;;0.50;;
71387;SDS011;59201;59.902;10.520;2023-01-05T03:22:14;2.17;;;0.67;;
71387;SDS011;59201;59.902;10.520;2023-01-05T03:25:00;3.10;;;0.60;;
71387;SDS011;59201;59.902;10.520;2023-01-05T03:27:46;1.85;;;0.50;;
71387;SDS011;59201;59.902;10.520;2023-01-05T03:30:38;3.55;;;0.90;;
71387;SDS011;59201;59.902;10.520;2023-01-05T03:33:28;2.75;;;0.60;;
71387;SDS011;59201;59.902;10.520;2023-01-05T03:36:15;2.10;;;0.60;;
71387;SDS011;59201;59.902;10.520;2023-01-05T03:38:55;1.77;;;0.50;;
71387;SDS011;59201;59.902;10.520;2023-01-05T03:41:25;2.53;;;0.65;;
71387;SDS011;59201;59.902;10.520;2023-01-05T03:43:55;3.28;;;0.77;;
71387;SDS011;59201;59.902;10.520;2023-01-05T03:46:25;2.25;;;0.73;;
71387;SDS011;59201;59.902;10.520;2023-01-05T03:48:54;2.50;;;0.70;;
71387;SDS011;59201;59.902;10.520;2023-01-05T03:51:27;1.35;;;0.57;;
71387;SDS011;59201;59.902;10.520;2023-01-05T03:53:57;1.27;;;0.47;;
71387;SDS011;59201;59.902;10.520;2023-01-05T03:56:23;2.63;;;0.70;;
71387;SDS011;59201;59.902;10.520;2023-01-05T03:58:51;3.70;;;0.90;;
71387;SDS011;59201;59.902;10.520;2023-01-05T04:01:24;2.77;;;0.70;;
71387;SDS011;59201;59.902;10.520;2023-01-05T04:03:53;0.85;;;0.40;;
71387;SDS011;59201;59.902;10.520;2023-01-05T04:06:24;2.65;;;0.68;;
71387;SDS011;59201;59.902;10.520;2023-01-05T04:08:51;1.73;;;0.60;;
71387;SDS011;59201;59.902;10.520;2023-01-05T04:11:21;1.67;;;0.57;;
71387;SDS011;59201;59.902;10.520;2023-01-05T04:13:51;3.60;;;0.70;;
71387;SDS011;59201;59.902;10.520;2023-01-05T04:16:20;1.40;;;0.50;;
71387;SDS011;59201;59.902;10.520;2023-01-05T04:18:49;1.08;;;0.40;;
71387;SDS011;59201;59.902;10.520;2023-01-05T04:21:20;2.28;;;0.73;;
71387;SDS011;59201;59.902;10.520;2023-01-05T04:23:48;1.80;;;0.65;;
71387;SDS011;59201;59.902;10.520;2023-01-05T04:26:16;2.40;;;0.70;;
71387;SDS011;59201;59.902;10.520;2023-01-05T04:28:45;1.77;;;0.63;;
71387;SDS011;59201;59.902;10.520;2023-01-05T04:31:14;2.35;;;0.70;;
71387;SDS011;59201;59.902;10.520;2023-01-05T04:33:41;1.67;;;0.60;;
71387;SDS011;59201;59.902;10.520;2023-01-05T04:36:10;2.22;;;0.60;;
71387;SDS011;59201;59.902;10.520;2023-01-05T04:38:38;2.57;;;0.63;;
71387;SDS011;59201;59.902;10.520;2023-01-05T04:41:08;2.60;;;0.82;;
71387;SDS011;59201;59.902;10.520;2023-01-05T04:43:37;5.88;;;1.15;;
71387;SDS011;59201;59.902;10.520;2023-01-05T04:46:07;2.13;;;0.60;;
71387;SDS011;59201;59.902;10.520;2023-01-05T04:48:37;3.42;;;0.77;;
71387;SDS011;59201;59.902;10.520;2023-01-05T04:51:06;2.80;;;0.70;;
71387;SDS011;59201;59.902;10.520;2023-01-05T04:53:34;3.38;;;0.82;;
71387;SDS011;59201;59.902;10.520;2023-01-05T04:56:02;3.75;;;0.90;;
71387;SDS011;59201;59.902;10.520;2023-01-05T04:58:42;1.33;;;0.40;;
71387;SDS011;59201;59.902;10.520;2023-01-05T05:01:11;3.03;;;0.73;;
71387;SDS011;59201;59.902;10.520;2023-01-05T05:03:42;2.90;;;0.70;;
71387;SDS011;59201;59.902;10.520;2023-01-05T05:06:10;2.97;;;0.80;;
71387;SDS011;59201;59.902;10.520;2023-01-05T05:08:39;3.80;;;1.00;;
71387;SDS011;59201;59.902;10.520;2023-01-05T05:11:07;3.00;;;0.90;;
71387;SDS011;59201;59.902;10.520;2023-01-05T05:13:35;3.28;;;0.82;;
71387;SDS011;59201;59.902;10.520;2023-01-05T05:16:05;1.93;;;0.60;;
71387;SDS011;59201;59.902;10.520;2023-01-05T05:18:34;2.50;;;0.63;;
71387;SDS011;59201;59.902;10.520;2023-01-05T05:21:04;1.33;;;0.50;;
71387;SDS011;59201;59.902;10.520;2023-01-05T05:23:31;3.45;;;0.85;;
71387;SDS011;59201;59.902;10.520;2023-01-05T05:25:59;3.70;;;1.23;;
71387;SDS011;59201;59.902;10.520;2023-01-05T05:28:28;4.00;;;0.90;;
71387;SDS011;59201;59.902;10.520;2023-01-05T05:30:56;3.15;;;0.80;;
71387;SDS011;59201;59.902;10.520;2023-01-05T05:33:25;3.13;;;0.77;;
71387;SDS011;59201;59.902;10.520;2023-01-05T05:35:55;5.07;;;1.00;;
71387;SDS011;59201;59.902;10.520;2023-01-05T05:38:27;2.63;;;0.70;;
71387;SDS011;59201;59.902;10.520;2023-01-05T05:40:55;3.30;;;0.87;;
71387;SDS011;59201;59.902;10.520;2023-01-05T05:43:27;2.97;;;0.75;;
71387;SDS011;59201;59.902;10.520;2023-01-05T05:45:55;2.45;;;0.75;;
71387;SDS011;59201;59.902;10.520;2023-01-05T05:48:23;4.13;;;0.93;;
71387;SDS011;59201;59.902;10.520;2023-01-05T05:50:52;3.10;;;0.73;;
71387;SDS011;59201;59.902;10.520;2023-01-05T05:53:21;3.63;;;0.93;;
71387;SDS011;59201;59.902;10.520;2023-01-05T05:55:50;3.28;;;0.82;;
71387;SDS011;59201;59.902;10.520;2023-01-05T05:58:19;3.40;;;0.90;;
71387;SDS011;59201;59.902;10.520;2023-01-05T06:00:49;3.15;;;0.90;;
71387;SDS011;59201;59.902;10.520;2023-01-05T06:03:17;4.05;;;0.93;;
71387;SDS011;59201;59.902;10.520;2023-01-05T06:05:50;4.30;;;1.20;;
71387;SDS011;59201;59.902;10.520;2023-01-05T06:08:18;4.72;;;1.15;;
71387;SDS011;59201;59.902;10.520;2023-01-05T06:10:47;4.10;;;1.00;;
71387;SDS011;59201;59.902;10.520;2023-01-05T06:13:14;4.35;;;1.08;;
71387;SDS011;59201;59.902;10.520;2023-01-05T06:15:43;4.25;;;1.30;;
71387;SDS011;59201;59.902;10.520;2023-01-05T06:18:16;3.53;;;0.93;;
71387;SDS011;59201;59.902;10.520;2023-01-05T06:20:49;7.18;;;1.20;;
71387;SDS011;59201;59.902;10.520;2023-01-05T06:23:18;1.77;;;0.57;;
71387;SDS011;59201;59.902;10.520;2023-01-05T06:25:48;5.38;;;1.23;;
71387;SDS011;59201;59.902;10.520;2023-01-05T06:28:21;3.03;;;0.80;;
71387;SDS011;59201;59.902;10.520;2023-01-05T06:30:52;4.97;;;1.20;;
71387;SDS011;59201;59.902;10.520;2023-01-05T06:33:22;4.32;;;1.17;;
71387;SDS011;59201;59.902;10.520;2023-01-05T06:35:51;3.72;;;1.23;;
71387;SDS011;59201;59.902;10.520;2023-01-05T06:38:19;3.78;;;1.00;;
71387;SDS011;59201;59.902;10.520;2023-01-05T06:40:49;3.47;;;0.93;;
71387;SDS011;59201;59.902;10.520;2023-01-05T06:43:20;2.73;;;0.80;;
71387;SDS011;59201;59.902;10.520;2023-01-05T06:45:50;4.05;;;1.05;;
71387;SDS011;59201;59.902;10.520;2023-01-05T06:48:18;4.07;;;1.05;;
71387;SDS011;59201;59.902;10.520;2023-01-05T06:50:46;4.93;;;1.30;;
71387;SDS011;59201;59.902;10.520;2023-01-05T06:53:15;4.35;;;1.20;;
71387;SDS011;59201;59.902;10.520;2023-01-05T06:55:44;4.90;;;1.20;;
71387;SDS011;59201;59.902;10.520;2023-01-05T06:58:14;4.60;;;1.30;;
71387;SDS011;59201;59.902;10.520;2023-01-05T07:00:46;2.17;;;0.70;;
71387;SDS011;59201;59.902;10.520;2023-01-05T07:03:15;4.55;;;1.23;;
71387;SDS011;59201;59.902;10.520;2023-01-05T07:05:43;4.95;;;1.42;;
71387;SDS011;59201;59.902;10.520;2023-01-05T07:08:13;4.33;;;1.43;;
71387;SDS011;59201;59.902;10.520;2023-01-05T07:10:46;3.65;;;1.02;;
71387;SDS011;59201;59.902;10.520;2023-01-05T07:13:15;4.03;;;1.20;;
71387;SDS011;59201;59.902;10.520;2023-01-05T07:15:43;5.75;;;1.30;;
71387;SDS011;59201;59.902;10.520;2023-01-05T07:18:14;4.90;;;1.20;;
71387;SDS011;59201;59.902;10.520;2023-01-05T07:20:46;6.90;;;1.80;;
71387;SDS011;59201;59.902;10.520;2023-01-05T07:23:20;1.15;;;0.60;;
71387;SDS011;59201;59.902;10.520;2023-01-05T07:25:48;4.63;;;1.30;;
71387;SDS011;59201;59.902;10.520;2023-01-05T07:28:35;5.47;;;1.35;;
71387;SDS011;59201;59.902;10.520;2023-01-05T07:31:08;3.45;;;0.98;;
71387;SDS011;59201;59.902;10.520;2023-01-05T07:33:36;2.53;;;0.77;;
71387;SDS011;59201;59.902;10.520;2023-01-05T07:36:08;5.32;;;1.23;;
71387;SDS011;59201;59.902;10.520;2023-01-05T07:38:40;2.72;;;0.90;;
71387;SDS011;59201;59.902;10.520;2023-01-05T07:41:08;2.40;;;0.75;;
71387;SDS011;59201;59.902;10.520;2023-01-05T07:43:40;6.20;;;1.58;;
71387;SDS011;59201;59.902;10.520;2023-01-05T07:46:08;5.07;;;1.10;;
71387;SDS011;59201;59.902;10.520;2023-01-05T07:48:38;9.07;;;1.63;;
71387;SDS011;59201;59.902;10.520;2023-01-05T07:51:08;5.10;;;1.50;;
71387;SDS011;59201;59.902;10.520;2023-01-05T07:53:36;5.25;;;1.02;;
71387;SDS011;59201;59.902;10.520;2023-01-05T07:56:10;4.72;;;1.33;;
71387;SDS011;59201;59.902;10.520;2023-01-05T07:58:40;5.20;;;1.30;;
71387;SDS011;59201;59.902;10.520;2023-01-05T08:01:09;2.08;;;0.77;;
71387;SDS011;59201;59.902;10.520;2023-01-05T08:03:39;4.18;;;1.02;;
71387;SDS011;59201;59.902;10.520;2023-01-05T08:06:12;4.38;;;1.17;;
71387;SDS011;59201;59.902;10.520;2023-01-05T08:08:40;4.72;;;1.50;;
71387;SDS011;59201;59.902;10.520;2023-01-05T08:11:09;6.93;;;1.40;;
71387;SDS011;59201;59.902;10.520;2023-01-05T08:13:37;5.60;;;1.20;;
71387;SDS011;59201;59.902;10.520;2023-01-05T08:16:25;4.53;;;1.23;;
71387;SDS011;59201;59.902;10.520;2023-01-05T08:18:54;5.75;;;1.27;;
71387;SDS011;59201;59.902;10.520;2023-01-05T08:21:25;5.15;;;1.15;;
71387;SDS011;59201;59.902;10.520;2023-01-05T08:23:55;4.77;;;1.10;;
71387;SDS011;59201;59.902;10.520;2023-01-05T08:26:25;5.10;;;1.20;;
71387;SDS011;59201;59.902;10.520;2023-01-05T08:28:55;2.80;;;1.02;;
71387;SDS011;59201;59.902;10.520;2023-01-05T08:31:25;5.78;;;1.30;;
71387;SDS011;59201;59.902;10.520;2023-01-05T08:33:59;5.32;;;1.33;;
71387;SDS011;59201;59.902;10.520;2023-01-05T08:36:27;5.67;;;1.30;;
71387;SDS011;59201;59.902;10.520;2023-01-05T08:38:57;6.05;;;1.50;;
71387;SDS011;59201;59.902;10.520;2023-01-05T08:41:31;4.22;;;1.20;;
71387;SDS011;59201;59.902;10.520;2023-01-05T08:44:02;6.20;;;1.52;;
71387;SDS011;59201;59.902;10.520;2023-01-05T08:46:32;6.78;;;1.90;;
71387;SDS011;59201;59.902;10.520;2023-01-05T08:49:03;6.07;;;1.40;;
71387;SDS011;59201;59.902;10.520;2023-01-05T08:51:31;3.17;;;1.00;;
71387;SDS011;59201;59.902;10.520;2023-01-05T08:54:00;7.20;;;1.63;;
71387;SDS011;59201;59.902;10.520;2023-01-05T08:56:28;5.43;;;1.60;;
71387;SDS011;59201;59.902;10.520;2023-01-05T08:58:57;7.03;;;1.90;;
71387;SDS011;59201;59.902;10.520;2023-01-05T09:01:25;7.57;;;1.80;;
71387;SDS011;59201;59.902;10.520;2023-01-05T09:03:55;5.30;;;1.90;;
71387;SDS011;59201;59.902;10.520;2023-01-05T09:06:28;6.95;;;1.70;;
71387;SDS011;59201;59.902;10.520;2023-01-05T09:08:55;5.97;;;1.90;;
71387;SDS011;59201;59.902;10.520;2023-01-05T09:11:25;5.05;;;1.50;;
71387;SDS011;59201;59.902;10.520;2023-01-05T09:13:55;6.57;;;1.63;;
71387;SDS011;59201;59.902;10.520;2023-01-05T09:16:25;4.80;;;1.45;;
71387;SDS011;59201;59.902;10.520;2023-01-05T09:18:58;5.45;;;1.52;;
71387;SDS011;59201;59.902;10.520;2023-01-05T09:21:28;6.38;;;2.03;;
71387;SDS011;59201;59.902;10.520;2023-01-05T09:23:58;5.47;;;1.48;;
71387;SDS011;59201;59.902;10.520;2023-01-05T09:26:27;1.23;;;0.53;;
71387;SDS011;59201;59.902;10.520;2023-01-05T09:28:55;4.20;;;1.20;;
71387;SDS011;59201;59.902;10.520;2023-01-05T09:31:26;6.07;;;1.30;;
71387;SDS011;59201;59.902;10.520;2023-01-05T09:33:55;7.28;;;1.45;;
71387;SDS011;59201;59.902;10.520;2023-01-05T09:36:24;5.53;;;1.45;;
71387;SDS011;59201;59.902;10.520;2023-01-05T09:38:53;6.37;;;1.60;;
71387;SDS011;59201;59.902;10.520;2023-01-05T09:46:38;5.03;;;1.30;;
71387;SDS011;59201;59.902;10.520;2023-01-05T09:49:12;6.15;;;1.58;;
71387;SDS011;59201;59.902;10.520;2023-01-05T09:51:42;7.23;;;1.60;;
71387;SDS011;59201;59.902;10.520;2023-01-05T09:54:14;7.72;;;1.67;;
71387;SDS011;59201;59.902;10.520;2023-01-05T09:56:45;4.35;;;1.08;;
71387;SDS011;59201;59.902;10.520;2023-01-05T09:59:14;4.10;;;1.27;;
71387;SDS011;59201;59.902;10.520;2023-01-05T10:01:48;4.30;;;1.10;;
71387;SDS011;59201;59.902;10.520;2023-01-05T10:04:18;3.13;;;0.97;;
71387;SDS011;59201;59.902;10.520;2023-01-05T10:06:49;4.35;;;0.95;;
71387;SDS011;59201;59.902;10.520;2023-01-05T10:09:20;6.75;;;1.05;;
71387;SDS011;59201;59.902;10.520;2023-01-05T10:14:40;4.65;;;1.02;;
71387;SDS011;59201;59.902;10.520;2023-01-05T10:17:11;3.87;;;1.10;;
71387;SDS011;59201;59.902;10.520;2023-01-05T10:19:40;3.88;;;1.02;;
71387;SDS011;59201;59.902;10.520;2023-01-05T10:22:45;5.20;;;1.30;;
71387;SDS011;59201;59.902;10.520;2023-01-05T10:25:52;5.60;;;1.80;;
71387;SDS011;59201;59.902;10.520;2023-01-05T10:38:22;9.35;;;1.67;;
71387;SDS011;59201;59.902;10.520;2023-01-05T10:46:08;6.15;;;1.27;;
71387;SDS011;59201;59.902;10.520;2023-01-05T10:48:38;6.25;;;1.65;;
71387;SDS011;59201;59.902;10.520;2023-01-05T10:51:07;6.78;;;2.00;;
71387;SDS011;59201;59.902;10.520;2023-01-05T10:53:39;3.90;;;1.10;;
71387;SDS011;59201;59.902;10.520;2023-01-05T10:58:35;4.40;;;0.85;;
71387;SDS011;59201;59.902;10.520;2023-01-05T11:03:51;4.13;;;1.17;;
71387;SDS011;59201;59.902;10.520;2023-01-05T11:06:21;5.60;;;1.30;;
71387;SDS011;59201;59.902;10.520;2023-01-05T11:08:49;4.47;;;1.30;;
71387;SDS011;59201;59.902;10.520;2023-01-05T11:11:21;6.50;;;1.40;;
71387;SDS011;59201;59.902;10.520;2023-01-05T11:13:56;6.00;;;1.30;;
71387;SDS011;59201;59.902;10.520;2023-01-05T11:16:29;4.63;;;0.95;;
71387;SDS011;59201;59.902;10.520;2023-01-05T11:19:10;4.43;;;1.20;;
71387;SDS011;59201;59.902;10.520;2023-01-05T11:21:41;6.30;;;1.23;;
71387;SDS011;59201;59.902;10.520;2023-01-05T11:24:26;6.80;;;1.30;;
71387;SDS011;59201;59.902;10.520;2023-01-05T11:26:57;6.32;;;1.50;;
71387;SDS011;59201;59.902;10.520;2023-01-05T11:29:26;5.32;;;1.23;;
71387;SDS011;59201;59.902;10.520;2023-01-05T11:39:26;6.13;;;1.38;;
71387;SDS011;59201;59.902;10.520;2023-01-05T11:42:10;5.85;;;1.52;;
71387;SDS011;59201;59.902;10.520;2023-01-05T11:45:04;4.85;;;1.33;;
71387;SDS011;59201;59.902;10.520;2023-01-05T11:47:35;5.73;;;1.30;;
71387;SDS011;59201;59.902;10.520;2023-01-05T11:52:41;7.00;;;1.73;;
71387;SDS011;59201;59.902;10.520;2023-01-05T11:57:51;5.28;;;1.40;;
71387;SDS011;59201;59.902;10.520;2023-01-05T12:00:23;5.47;;;1.30;;
71387;SDS011;59201;59.902;10.520;2023-01-05T12:08:00;5.63;;;1.58;;
71387;SDS011;59201;59.902;10.520;2023-01-05T12:21:02;5.10;;;1.38;;
71387;SDS011;59201;59.902;10.520;2023-01-05T12:33:49;9.82;;;3.05;;
71387;SDS011;59201;59.902;10.520;2023-01-05T12:44:27;5.82;;;2.00;;
71387;SDS011;59201;59.902;10.520;2023-01-05T12:47:02;5.75;;;1.77;;
71387;SDS011;59201;59.902;10.520;2023-01-05T12:49:40;6.47;;;1.65;;
71387;SDS011;59201;59.902;10.520;2023-01-05T12:52:25;6.97;;;1.80;;
71387;SDS011;59201;59.902;10.520;2023-01-05T12:55:00;6.32;;;1.80;;
71387;SDS011;59201;59.902;10.520;2023-01-05T12:57:40;7.63;;;2.05;;
71387;SDS011;59201;59.902;10.520;2023-01-05T13:00:14;7.63;;;2.40;;
71387;SDS011;59201;59.902;10.520;2023-01-05T13:02:48;7.50;;;2.50;;
71387;SDS011;59201;59.902;10.520;2023-01-05T13:13:19;6.93;;;1.98;;
71387;SDS011;59201;59.902;10.520;2023-01-05T13:18:16;6.37;;;1.80;;
71387;SDS011;59201;59.902;10.520;2023-01-05T13:20:50;8.10;;;2.03;;
71387;SDS011;59201;59.902;10.520;2023-01-05T13:23:21;11.50;;;3.95;;
71387;SDS011;59201;59.902;10.520;2023-01-05T13:28:22;8.23;;;3.00;;
71387;SDS011;59201;59.902;10.520;2023-01-05T13:30:57;10.00;;;3.27;;
71387;SDS011;59201;59.902;10.520;2023-01-05T13:33:35;6.95;;;2.78;;
71387;SDS011;59201;59.902;10.520;2023-01-05T13:38:53;7.55;;;2.80;;
71387;SDS011;59201;59.902;10.520;2023-01-05T13:41:41;7.47;;;2.28;;
71387;SDS011;59201;59.902;10.520;2023-01-05T13:44:23;3.93;;;1.23;;
71387;SDS011;59201;59.902;10.520;2023-01-05T13:49:36;5.80;;;1.60;;
71387;SDS011;59201;59.902;10.520;2023-01-05T13:54:46;6.05;;;2.10;;
71387;SDS011;59201;59.902;10.520;2023-01-05T13:57:19;6.17;;;1.80;;
71387;SDS011;59201;59.902;10.520;2023-01-05T13:59:50;4.40;;;1.25;;
71387;SDS011;59201;59.902;10.520;2023-01-05T14:02:24;5.85;;;1.42;;
71387;SDS011;59201;59.902;10.520;2023-01-05T14:04:53;5.75;;;1.70;;
71387;SDS011;59201;59.902;10.520;2023-01-05T14:07:22;7.22;;;1.85;;
71387;SDS011;59201;59.902;10.520;2023-01-05T14:09:59;7.77;;;1.90;;
71387;SDS011;59201;59.902;10.520;2023-01-05T14:12:42;7.43;;;2.03;;
71387;SDS011;59201;59.902;10.520;2023-01-05T14:15:26;7.35;;;1.92;;
71387;SDS011;59201;59.902;10.520;2023-01-05T14:17:55;7.25;;;2.05;;
71387;SDS011;59201;59.902;10.520;2023-01-05T14:23:50;10.37;;;3.07;;
71387;SDS011;59201;59.902;10.520;2023-01-05T14:26:00;8.27;;;2.50;;
71387;SDS011;59201;59.902;10.520;2023-01-05T14:33:58;8.05;;;2.22;;
71387;SDS011;59201;59.902;10.520;2023-01-05T14:39:05;4.38;;;1.38;;
71387;SDS011;59201;59.902;10.520;2023-01-05T14:41:39;6.40;;;1.88;;
71387;SDS011;59201;59.902;10.520;2023-01-05T14:44:15;6.95;;;1.65;;
71387;SDS011;59201;59.902;10.520;2023-01-05T14:46:55;7.28;;;2.40;;
71387;SDS011;59201;59.902;10.520;2023-01-05T14:49:33;4.80;;;1.43;;
71387;SDS011;59201;59.902;10.520;2023-01-05T14:52:04;11.10;;;2.47;;
71387;SDS011;59201;59.902;10.520;2023-01-05T14:57:34;13.50;;;4.82;;
71387;SDS011;59201;59.902;10.520;2023-01-05T15:02:44;18.47;;;3.63;;
71387;SDS011;59201;59.902;10.520;2023-01-05T15:05:14;10.52;;;2.35;;
71387;SDS011;59201;59.902;10.520;2023-01-05T15:15:50;8.27;;;2.10;;
71387;SDS011;59201;59.902;10.520;2023-01-05T15:32:27;5.88;;;2.45;;
71387;SDS011;59201;59.902;10.520;2023-01-05T15:37:32;7.68;;;2.67;;
71387;SDS011;59201;59.902;10.520;2023-01-05T15:42:42;5.53;;;1.97;;
71387;SDS011;59201;59.902;10.520;2023-01-05T15:47:59;9.55;;;1.98;;
71387;SDS011;59201;59.902;10.520;2023-01-05T15:50:49;8.40;;;2.30;;
71387;SDS011;59201;59.902;10.520;2023-01-05T15:55:53;9.07;;;2.97;;
71387;SDS011;59201;59.902;10.520;2023-01-05T15:58:22;6.07;;;1.70;;
71387;SDS011;59201;59.902;10.520;2023-01-05T16:01:05;5.50;;;1.98;;
71387;SDS011;59201;59.902;10.520;2023-01-05T16:03:33;7.35;;;2.50;;
71387;SDS011;59201;59.902;10.520;2023-01-05T16:06:01;6.15;;;1.75;;
71387;SDS011;59201;59.902;10.520;2023-01-05T16:08:39;8.50;;;2.27;;
71387;SDS011;59201;59.902;10.520;2023-01-05T16:11:10;7.05;;;1.92;;
71387;SDS011;59201;59.902;10.520;2023-01-05T16:13:52;4.38;;;1.52;;
71387;SDS011;59201;59.902;10.520;2023-01-05T16:16:32;6.35;;;2.10;;
71387;SDS011;59201;59.902;10.520;2023-01-05T16:19:06;6.93;;;2.13;;
71387;SDS011;59201;59.902;10.520;2023-01-05T16:21:40;4.47;;;1.27;;
71387;SDS011;59201;59.902;10.520;2023-01-05T16:26:45;5.72;;;1.77;;
71387;SDS011;59201;59.902;10.520;2023-01-05T16:29:18;8.60;;;2.72;;
71387;SDS011;59201;59.902;10.520;2023-01-05T16:31:52;12.88;;;3.40;;
71387;SDS011;59201;59.902;10.520;2023-01-05T16:34:21;8.03;;;1.77;;
71387;SDS011;59201;59.902;10.520;2023-01-05T16:37:04;5.70;;;1.77;;
71387;SDS011;59201;59.902;10.520;2023-01-05T16:39:38;8.55;;;2.42;;
71387;SDS011;59201;59.902;10.520;2023-01-05T16:42:12;3.17;;;1.20;;
71387;SDS011;59201;59.902;10.520;2023-01-05T16:45:02;6.53;;;2.35;;
71387;SDS011;59201;59.902;10.520;2023-01-05T16:47:38;5.37;;;1.27;;
71387;SDS011;59201;59.902;10.520;2023-01-05T16:53:04;17.00;;;5.00;;
71387;SDS011;59201;59.902;10.520;2023-01-05T16:55:36;12.25;;;3.72;;
71387;SDS011;59201;59.902;10.520;2023-01-05T16:58:31;20.13;;;6.45;;
71387;SDS011;59201;59.902;10.520;2023-01-05T17:01:40;18.50;;;5.93;;
71387;SDS011;59201;59.902;10.520;2023-01-05T17:03:43;11.18;;;4.30;;
71387;SDS011;59201;59.902;10.520;2023-01-05T17:06:34;10.60;;;2.42;;
71387;SDS011;59201;59.902;10.520;2023-01-05T17:09:02;8.32;;;3.08;;
71387;SDS011;59201;59.902;10.520;2023-01-05T17:11:35;8.40;;;2.75;;
71387;SDS011;59201;59.902;10.520;2023-01-05T17:14:06;9.30;;;2.50;;
71387;SDS011;59201;59.902;10.520;2023-01-05T17:16:43;9.55;;;3.03;;
71387;SDS011;59201;59.902;10.520;2023-01-05T17:19:15;8.10;;;2.83;;
71387;SDS011;59201;59.902;10.520;2023-01-05T17:21:44;7.53;;;2.10;;
71387;SDS011;59201;59.902;10.520;2023-01-05T17:24:14;7.25;;;2.67;;
71387;SDS011;59201;59.902;10.520;2023-01-05T17:26:44;7.47;;;2.73;;
71387;SDS011;59201;59.902;10.520;2023-01-05T17:29:18;13.52;;;3.53;;
71387;SDS011;59201;59.902;10.520;2023-01-05T17:31:47;9.68;;;2.95;;
71387;SDS011;59201;59.902;10.520;2023-01-05T17:34:17;7.80;;;2.55;;
71387;SDS011;59201;59.902;10.520;2023-01-05T17:36:46;10.55;;;3.40;;
71387;SDS011;59201;59.902;10.520;2023-01-05T17:39:18;11.13;;;3.00;;
71387;SDS011;59201;59.902;10.520;2023-01-05T17:41:47;8.20;;;3.25;;
71387;SDS011;59201;59.902;10.520;2023-01-05T17:44:18;10.95;;;3.58;;
71387;SDS011;59201;59.902;10.520;2023-01-05T17:46:47;12.23;;;3.55;;
71387;SDS011;59201;59.902;10.520;2023-01-05T17:49:17;8.93;;;3.00;;
71387;SDS011;59201;59.902;10.520;2023-01-05T17:51:46;11.13;;;3.80;;
71387;SDS011;59201;59.902;10.520;2023-01-05T17:54:15;10.30;;;3.17;;
71387;SDS011;59201;59.902;10.520;2023-01-05T17:56:47;9.88;;;2.92;;
71387;SDS011;59201;59.902;10.520;2023-01-05T17:59:16;10.15;;;3.50;;
71387;SDS011;59201;59.902;10.520;2023-01-05T18:01:46;11.07;;;3.70;;
71387;SDS011;59201;59.902;10.520;2023-01-05T18:04:16;12.70;;;4.17;;